Terminal Aerodrome Forecast
Issued by NWS

Home | Current Version | Previous Version | Text Only | Print | Product List | Glossary On
Versions: 1 2 3 4 5 6 7 8 9 10 11 12 13
000
FTUS45 KABQ 271740
TAFGUP
TAF
KGUP 271740Z 2718/2818 25010G17KT P6SM BKN080
     FM272000 27015G24KT P6SM BKN090
     FM280130 28006KT P6SM SCT090
     FM280400 VRB04KT P6SM FEW090=

USA.gov is the U.S. government's official web portal to all federal, state and local government web resources and services.